Departure
Luxor International Airport
Luxor, EG
cloud Weather
- Wind
- 320° / 7 kt
- Visibility
- 6 SM
- Ceiling
- CAVOK
- Temp / Dew
- 35°C / 10°C
- Altimeter
- 29.76 inHg
Obs: 2026-09-05T16:00:00.000Z
Raw METAR
METAR HELX 051600Z 32007KT CAVOK 35/10 Q1008 NOSIG
route Route
Departure
Luxor, EG
Obs: 2026-09-05T16:00:00.000Z
METAR HELX 051600Z 32007KT CAVOK 35/10 Q1008 NOSIG
Arrival
Cairo, EG
Obs: 2026-09-05T16:30:00.000Z
METAR HECA 051630Z 35015KT 9999 FEW025 31/19 Q1012 NOSIG
| Date | Flight | Aircraft | Takeoff | Landing | Duration | Arr Δ |
|---|---|---|---|---|---|---|
| 2026-07-25 | MSC057 | 010241 | Jul 25, 23:00 UTC | Jul 25, 23:10 UTC | 10m | - |
| 2026-07-23 | MSR069 | 010147 | Jul 23, 18:35 UTC | Jul 23, 19:00 UTC | 25m | - |
| 2026-07-22 | MSR069 | 010207 | Jul 22, 18:50 UTC | Jul 22, 19:10 UTC | 20m | - |
| 2026-07-21 | MSR069 | 0100DB | Jul 21, 19:35 UTC | Jul 21, 19:45 UTC | 10m | - |
| 2026-07-19 | MSR069 | 0100DB | Jul 19, 18:45 UTC | Jul 19, 19:05 UTC | 20m | - |
| 2026-07-15 | MSR069 | 0100DB | Jul 15, 18:45 UTC | Jul 15, 19:05 UTC | 20m | - |
| 2026-07-11 | MSC057 | 010257 | Jul 11, 22:30 UTC | Jul 11, 22:45 UTC | 15m | - |
| 2026-07-11 | MSR363 | 010160 | Jul 11, 19:00 UTC | Jul 11, 19:20 UTC | 20m | - |
| 2026-07-11 | MSR067 | 010163 | Jul 11, 15:40 UTC | Jul 11, 15:55 UTC | 15m | - |
| 2026-07-10 | MSR069 | 010298 | Jul 10, 21:30 UTC | Jul 10, 21:50 UTC | 20m | - |
| 2026-07-07 | MSR069 | 0100DB | Jul 7, 19:15 UTC | Jul 7, 19:35 UTC | 20m | - |
| 2026-07-04 | MSR067 | 010163 | Jul 4, 16:50 UTC | Jul 4, 17:00 UTC | 10m | - |
| 2026-07-04 | MSR067 | 010163 | Jul 4, 16:00 UTC | Jul 4, 16:10 UTC | 10m | - |
| 2026-07-03 | MSR069 | 0101BD | Jul 3, 19:55 UTC | Jul 3, 20:20 UTC | 25m | - |
| 2026-07-02 | MSR069 | 010147 | Jul 2, 18:45 UTC | Jul 2, 19:05 UTC | 20m | - |
| 2026-06-30 | MSR069 | 010147 | Jun 30, 19:00 UTC | Jun 30, 19:20 UTC | 20m | - |
| 2026-06-30 | MSC069 | 010251 | Jun 30, 18:15 UTC | Jun 30, 18:40 UTC | 25m | - |
| 2026-06-29 | MSR063 | 010162 | Jun 29, 06:19 UTC | Jun 29, 06:29 UTC | 10m | - |
| 2026-06-27 | MSR363 | 010245 | Jun 27, 19:15 UTC | Jun 27, 19:34 UTC | 20m | - |
| 2026-06-27 | MSR361 | 010162 | Jun 27, 16:55 UTC | Jun 27, 17:14 UTC | 20m | - |
| 2026-06-27 | MSR061 | 0101B9 | Jun 27, 04:05 UTC | Jun 27, 04:19 UTC | 15m | - |
| 2026-06-26 | MSR069 | 010268 | Jun 26, 18:54 UTC | Jun 26, 19:14 UTC | 20m | - |
| 2026-06-25 | MSR069 | 010268 | Jun 25, 18:29 UTC | Jun 25, 18:55 UTC | 25m | - |
| 2026-06-22 | MSR069 | 010147 | Jun 22, 18:44 UTC | Jun 22, 19:05 UTC | 20m | - |
| 2026-06-21 | MSC063 | 010251 | Jun 21, 14:10 UTC | Jun 21, 14:19 UTC | 10m | - |
| 2026-06-21 | MSC061 | 010252 | Jun 21, 10:09 UTC | Jun 21, 10:19 UTC | 10m | - |
| 2026-06-20 | MSR363 | 01010B | Jun 20, 18:45 UTC | Jun 20, 19:15 UTC | 30m | - |
| 2026-06-20 | MSR361 | 01010A | Jun 20, 17:49 UTC | Jun 20, 18:10 UTC | 20m | - |
| 2026-06-20 | MSC061 | 010258 | Jun 20, 04:59 UTC | Jun 20, 05:14 UTC | 15m | - |
| 2026-06-20 | MSR061 | 0101BA | Jun 20, 04:04 UTC | Jun 20, 04:24 UTC | 20m | - |
| 2026-06-19 | MSR069 | 0100DF | Jun 19, 18:54 UTC | Jun 19, 19:04 UTC | 10m | - |
| 2026-06-18 | MSC065 | 010254 | Jun 18, 22:15 UTC | Jun 18, 22:25 UTC | 10m | - |
| 2026-06-18 | MSR069 | 0101BD | Jun 18, 18:50 UTC | Jun 18, 19:00 UTC | 10m | - |
| 2026-06-16 | MSR069 | 01010D | Jun 16, 19:05 UTC | Jun 16, 19:25 UTC | 20m | - |
| 2026-06-16 | MSC069 | 010254 | Jun 16, 17:45 UTC | Jun 16, 18:15 UTC | 30m | - |
| 2026-06-16 | MSR275 | 010268 | Jun 16, 12:55 UTC | Jun 16, 13:04 UTC | 10m | - |
| 2026-06-11 | MSR069 | 0100DB | Jun 11, 19:10 UTC | Jun 11, 19:25 UTC | 15m | - |
| 2026-06-10 | MSR069 | 01010D | Jun 10, 19:00 UTC | Jun 10, 19:30 UTC | 30m | - |
| 2026-06-07 | MSC063 | 010240 | Jun 7, 15:45 UTC | Jun 7, 16:00 UTC | 15m | - |
| 2026-06-07 | MSR061 | 0100DC | Jun 7, 04:05 UTC | Jun 7, 04:15 UTC | 10m | - |
| 2026-06-06 | MSR363 | 010145 | Jun 6, 19:10 UTC | Jun 6, 19:19 UTC | 10m | - |
| 2026-06-01 | MSR363 | 010161 | Jun 1, 19:05 UTC | Jun 1, 19:30 UTC | 25m | - |
| 2026-06-01 | MSC065 | 010259 | Jun 1, 17:05 UTC | Jun 1, 17:20 UTC | 15m | - |
| 2026-05-30 | MSR363 | 01027D | May 30, 19:20 UTC | May 30, 19:30 UTC | 10m | - |
| 2026-05-30 | MSR069 | 01010D | May 30, 19:05 UTC | May 30, 19:15 UTC | 10m | - |
| 2026-05-28 | MSC065 | 010254 | May 28, 20:50 UTC | May 28, 21:00 UTC | 10m | - |
| 2026-05-26 | MSR069 | 010161 | May 26, 18:40 UTC | May 26, 18:50 UTC | 10m | - |
| 2026-05-26 | MSC069 | 010254 | May 26, 17:44 UTC | May 26, 17:59 UTC | 15m | - |
| 2026-05-24 | MSC065 | 010254 | May 24, 21:20 UTC | May 24, 21:40 UTC | 20m | - |
| 2026-05-23 | MSR069 | 010268 | May 23, 18:50 UTC | May 23, 19:00 UTC | 10m | - |